Time;durP1;ratioP1;P1;durP2;ratioP2;P2;SDS_P1;SDS_P2;PMS_P1;PMS_P2;Temp;Humidity;BMP_temperature;BMP_pressure;BME280_temperature;BME280_humidity;BME280_pressure;Samples;Min_cycle;Max_cycle;Signal;HPM_P1;HPM_P2
2023/04/26 00:00:13;;;;;;;8.98;3.20;;;8.40;99.90;;;;;;5035250;28;20025;-83
2023/04/26 00:02:40;;;;;;;11.77;4.03;;;8.40;99.90;;;;;;5034806;28;20033;-82
2023/04/26 00:05:06;;;;;;;15.45;3.53;;;8.40;99.90;;;;;;5034956;28;20022;-83
2023/04/26 00:07:32;;;;;;;7.00;3.55;;;8.40;99.90;;;;;;5035656;28;20056;-82
2023/04/26 00:09:58;;;;;;;13.45;5.07;;;8.40;99.90;;;;;;5034690;28;20022;-83
2023/04/26 00:12:24;;;;;;;6.90;3.70;;;8.40;99.90;;;;;;5035115;28;20063;-82
2023/04/26 00:14:49;;;;;;;8.45;3.55;;;8.40;99.90;;;;;;5035671;28;20024;-82
2023/04/26 00:17:15;;;;;;;12.15;3.95;;;8.40;99.90;;;;;;5033985;28;20378;-83
2023/04/26 00:19:41;;;;;;;8.48;4.03;;;8.40;99.90;;;;;;5035435;28;20384;-82
2023/04/26 00:22:07;;;;;;;15.95;4.85;;;8.40;99.90;;;;;;5035192;28;20354;-82
2023/04/26 00:24:33;;;;;;;8.13;3.30;;;8.30;99.90;;;;;;5034686;28;20061;-82
2023/04/26 00:27:00;;;;;;;12.73;3.92;;;8.30;99.90;;;;;;5035044;28;20025;-83
2023/04/26 00:29:26;;;;;;;7.80;3.53;;;8.80;99.90;;;;;;5034905;28;20142;-81
2023/04/26 00:31:51;;;;;;;8.00;3.38;;;8.30;99.90;;;;;;5034817;28;20113;-82
2023/04/26 00:34:17;;;;;;;7.70;3.67;;;8.30;99.90;;;;;;5034316;28;20029;-82
2023/04/26 00:36:43;;;;;;;16.33;4.53;;;8.30;99.90;;;;;;5034312;28;20022;-82
2023/04/26 00:39:09;;;;;;;6.00;4.00;;;8.30;99.90;;;;;;5034206;28;20041;-82
2023/04/26 00:41:35;;;;;;;5.82;3.17;;;8.20;99.90;;;;;;5034585;28;20088;-82
2023/04/26 00:44:01;;;;;;;7.13;3.30;;;8.20;99.90;;;;;;5034156;28;20469;-83
2023/04/26 00:46:27;;;;;;;7.65;3.13;;;8.20;99.90;;;;;;5035016;28;20071;-83
2023/04/26 00:48:54;;;;;;;12.98;4.05;;;8.20;99.90;;;;;;5034175;28;20037;-83
2023/04/26 00:51:19;;;;;;;10.40;3.65;;;8.20;99.90;;;;;;5033917;28;20052;-83
2023/04/26 00:53:45;;;;;;;9.70;3.97;;;8.20;99.90;;;;;;5034830;28;20025;-81
2023/04/26 00:56:11;;;;;;;8.65;3.28;;;8.20;99.90;;;;;;5034118;28;20571;-81
2023/04/26 00:58:37;;;;;;;5.72;3.42;;;8.20;99.90;;;;;;5034205;28;20080;-82
2023/04/26 01:01:03;;;;;;;8.30;3.38;;;8.20;99.90;;;;;;5034164;28;20033;-83
2023/04/26 01:03:29;;;;;;;8.13;3.42;;;8.20;99.90;;;;;;5034222;28;20033;-83
2023/04/26 01:05:55;;;;;;;6.38;2.88;;;8.30;99.90;;;;;;5034036;28;20109;-82
2023/04/26 01:08:22;;;;;;;8.05;3.17;;;8.30;99.90;;;;;;5034007;28;20104;-82
2023/04/26 01:10:48;;;;;;;9.00;3.50;;;8.30;99.90;;;;;;5034478;28;20076;-82
2023/04/26 01:13:14;;;;;;;9.90;3.88;;;8.30;99.90;;;;;;5033833;28;20422;-82
2023/04/26 01:15:45;;;;;;;14.63;4.35;;;8.20;99.90;;;;;;5034407;28;20099;-82
2023/04/26 01:18:11;;;;;;;8.57;3.65;;;8.20;99.90;;;;;;5033725;28;20065;-82
2023/04/26 01:20:36;;;;;;;4.75;3.13;;;8.20;99.90;;;;;;5033615;28;20055;-82
2023/04/26 01:23:02;;;;;;;7.13;3.20;;;8.20;99.90;;;;;;5033562;28;20423;-82
2023/04/26 01:25:28;;;;;;;5.18;3.30;;;8.20;99.90;;;;;;5033901;28;20036;-82
2023/04/26 01:27:54;;;;;;;8.50;3.58;;;8.20;99.90;;;;;;5033938;28;20025;-82
2023/04/26 01:30:19;;;;;;;9.40;3.75;;;8.10;99.90;;;;;;5033960;28;20073;-82
2023/04/26 01:32:45;;;;;;;12.43;3.83;;;8.10;99.90;;;;;;5033090;28;20057;-82
2023/04/26 01:35:10;;;;;;;7.00;3.20;;;8.10;99.90;;;;;;5015791;28;20025;-82
2023/04/26 01:37:36;;;;;;;7.80;3.20;;;8.10;99.90;;;;;;5013911;28;20046;-82
2023/04/26 01:40:05;;;;;;;5.75;3.55;;;8.10;99.90;;;;;;5013104;28;20381;-82
2023/04/26 01:42:31;;;;;;;7.25;3.17;;;8.10;99.90;;;;;;5013756;28;20101;-82
2023/04/26 01:44:56;;;;;;;6.28;2.85;;;8.00;99.90;;;;;;5013675;28;20118;-82
2023/04/26 01:47:22;;;;;;;7.22;3.05;;;8.10;99.90;;;;;;5014869;28;20026;-82
2023/04/26 01:49:48;;;;;;;9.57;3.40;;;8.00;99.90;;;;;;5033229;28;20060;-82
2023/04/26 01:52:13;;;;;;;12.10;3.75;;;8.00;99.90;;;;;;5033537;28;20025;-82
2023/04/26 01:54:39;;;;;;;8.10;3.42;;;8.10;99.90;;;;;;5033042;28;20034;-82
2023/04/26 01:57:04;;;;;;;7.45;3.53;;;8.00;99.90;;;;;;5033597;28;20112;-82
2023/04/26 01:59:30;;;;;;;11.13;3.50;;;8.10;99.90;;;;;;5033048;28;20060;-82
2023/04/26 02:01:56;;;;;;;3.47;2.97;;;8.10;99.90;;;;;;5032989;28;20056;-82
2023/04/26 02:04:23;;;;;;;9.25;3.80;;;8.00;99.90;;;;;;5033095;28;20113;-82
2023/04/26 02:06:48;;;;;;;7.75;3.05;;;8.00;99.90;;;;;;5033396;28;20411;-82
2023/04/26 02:09:14;;;;;;;4.35;3.00;;;8.00;99.90;;;;;;5032446;28;20060;-82
2023/04/26 02:11:40;;;;;;;7.22;3.00;;;8.00;99.90;;;;;;5033114;28;20040;-82
2023/04/26 02:14:05;;;;;;;13.02;3.97;;;8.00;99.90;;;;;;5033123;28;20026;-82
2023/04/26 02:16:31;;;;;;;5.47;3.05;;;8.00;99.90;;;;;;5032659;28;20484;-83
2023/04/26 02:18:58;;;;;;;13.18;4.18;;;8.00;99.90;;;;;;5033028;28;20041;-83
2023/04/26 02:21:24;;;;;;;9.02;3.15;;;8.00;99.90;;;;;;5032781;28;20104;-83
2023/04/26 02:23:49;;;;;;;17.77;3.55;;;7.90;99.90;;;;;;5032541;28;20152;-82
2023/04/26 02:26:15;;;;;;;7.60;3.53;;;7.90;99.90;;;;;;5032691;28;20377;-82
2023/04/26 02:28:40;;;;;;;6.38;3.35;;;8.00;99.90;;;;;;5033106;28;20029;-82
2023/04/26 02:31:06;;;;;;;9.02;3.20;;;7.90;99.90;;;;;;5031964;28;20099;-82
2023/04/26 02:33:32;;;;;;;9.57;3.05;;;8.00;99.90;;;;;;5032757;28;20021;-82
2023/04/26 02:35:58;;;;;;;10.55;3.10;;;7.90;99.90;;;;;;5032942;28;20018;-82
2023/04/26 02:38:27;;;;;;;9.80;3.53;;;7.90;99.90;;;;;;5031636;28;20434;-82
2023/04/26 02:41:03;;;;;;;7.75;2.80;;;8.00;99.90;;;;;;5032728;28;20362;-82
2023/04/26 02:43:28;;;;;;;12.57;3.78;;;8.30;99.90;;;;;;5032134;28;20025;-82
2023/04/26 02:45:54;;;;;;;7.10;2.88;;;8.00;99.90;;;;;;5032603;28;20535;-82
2023/04/26 02:48:20;;;;;;;6.35;2.90;;;8.10;99.90;;;;;;5031900;28;20104;-82
2023/04/26 02:50:46;;;;;;;10.20;3.72;;;8.00;99.90;;;;;;5031951;28;20064;-82
2023/04/26 02:53:12;;;;;;;6.80;2.85;;;8.00;99.90;;;;;;5032437;28;20021;-82
2023/04/26 02:55:38;;;;;;;9.02;2.83;;;8.00;99.90;;;;;;5032159;28;20127;-82
2023/04/26 02:58:05;;;;;;;8.68;2.65;;;8.00;99.90;;;;;;5031693;28;20473;-82
2023/04/26 03:00:32;;;;;;;6.05;2.95;;;8.00;99.90;;;;;;5032505;28;20034;-82
2023/04/26 03:02:58;;;;;;;10.93;2.92;;;8.10;99.90;;;;;;5031712;28;20021;-82
2023/04/26 03:05:24;;;;;;;5.18;2.70;;;8.00;99.90;;;;;;5030979;28;20025;-82
2023/04/26 03:07:51;;;;;;;5.25;2.70;;;8.00;99.90;;;;;;5032297;28;20029;-82
2023/04/26 03:10:17;;;;;;;9.57;2.63;;;8.00;99.90;;;;;;5031899;28;20465;-81
2023/04/26 03:12:42;;;;;;;11.52;2.63;;;8.00;99.90;;;;;;5031025;28;20037;-82
2023/04/26 03:15:08;;;;;;;8.07;2.47;;;8.00;99.90;;;;;;5032162;28;20024;-82
2023/04/26 03:17:33;;;;;;;7.57;2.25;;;8.00;99.90;;;;;;5031613;28;20037;-81
2023/04/26 03:19:59;;;;;;;10.23;2.80;;;8.00;99.90;;;;;;5031365;28;20033;-82
2023/04/26 03:22:25;;;;;;;11.35;3.00;;;8.00;99.90;;;;;;5032263;28;20109;-82
2023/04/26 03:24:50;;;;;;;7.82;3.30;;;7.90;99.90;;;;;;5032743;28;20017;-83
2023/04/26 03:27:16;;;;;;;6.00;2.95;;;7.90;99.90;;;;;;5031257;28;20458;-82
2023/04/26 03:29:41;;;;;;;7.43;2.65;;;7.90;99.90;;;;;;5032082;28;20041;-82
2023/04/26 03:32:07;;;;;;;6.80;2.38;;;7.90;99.90;;;;;;5031695;28;20036;-82
2023/04/26 03:34:33;;;;;;;15.10;2.33;;;7.90;99.90;;;;;;5031286;28;20135;-82
2023/04/26 03:36:58;;;;;;;8.13;2.58;;;8.00;99.90;;;;;;5032099;28;20017;-82
2023/04/26 03:39:24;;;;;;;10.52;3.28;;;8.00;99.90;;;;;;5029732;28;20029;-82
2023/04/26 03:41:49;;;;;;;5.88;2.67;;;8.00;99.90;;;;;;5032219;28;20420;-82
2023/04/26 03:44:15;;;;;;;10.35;3.58;;;7.90;99.90;;;;;;5031868;28;20465;-82
2023/04/26 03:46:40;;;;;;;10.13;3.20;;;7.90;99.90;;;;;;5031000;28;20572;-82
2023/04/26 03:49:06;;;;;;;5.07;2.40;;;7.90;99.90;;;;;;5031166;28;20100;-83
2023/04/26 03:51:32;;;;;;;16.63;3.30;;;7.90;99.90;;;;;;5031969;28;20028;-82
2023/04/26 03:53:58;;;;;;;8.00;2.83;;;7.90;99.90;;;;;;5031333;28;20430;-82
2023/04/26 03:56:23;;;;;;;8.52;3.40;;;7.90;99.90;;;;;;5031149;28;20128;-82
2023/04/26 03:58:49;;;;;;;6.53;3.75;;;7.90;99.90;;;;;;5031842;28;20465;-82
2023/04/26 04:01:14;;;;;;;8.93;2.83;;;7.90;99.90;;;;;;5010584;28;20038;-82
2023/04/26 04:03:40;;;;;;;8.48;3.17;;;7.90;99.90;;;;;;4992012;28;20097;-82
2023/04/26 04:06:06;;;;;;;8.27;3.25;;;7.90;99.90;;;;;;4991126;28;20486;-82
2023/04/26 04:08:31;;;;;;;5.90;3.42;;;7.90;99.90;;;;;;4991760;28;20058;-82
2023/04/26 04:10:57;;;;;;;5.60;3.03;;;7.90;99.90;;;;;;4992391;28;20410;-82
2023/04/26 04:13:22;;;;;;;8.75;3.25;;;7.90;99.90;;;;;;4991968;28;20084;-82
2023/04/26 04:15:48;;;;;;;14.13;2.97;;;7.90;99.90;;;;;;4991556;28;20076;-82
2023/04/26 04:18:13;;;;;;;6.00;3.13;;;7.90;99.90;;;;;;4991903;28;20141;-82
2023/04/26 04:20:42;;;;;;;6.68;3.55;;;7.90;99.90;;;;;;4992483;28;20085;-82
2023/04/26 04:23:08;;;;;;;11.85;3.63;;;7.90;99.90;;;;;;4991721;28;20117;-82
2023/04/26 04:25:34;;;;;;;6.45;3.33;;;7.90;99.90;;;;;;4995721;28;20486;-82
2023/04/26 04:28:01;;;;;;;7.00;3.70;;;7.90;99.90;;;;;;4995779;28;20030;-82
2023/04/26 04:30:30;;;;;;;10.40;4.18;;;8.00;99.90;;;;;;4995113;28;20382;-82
2023/04/26 04:32:58;;;;;;;8.63;3.80;;;8.00;99.90;;;;;;4995629;28;20034;-82
2023/04/26 04:35:27;;;;;;;10.88;4.10;;;8.00;99.90;;;;;;4995902;28;20411;-82
2023/04/26 04:37:55;;;;;;;9.32;4.03;;;7.90;99.90;;;;;;4995105;28;20117;-83
2023/04/26 04:40:21;;;;;;;9.25;4.25;;;7.90;99.90;;;;;;4995266;28;20022;-82
2023/04/26 04:42:46;;;;;;;5.07;4.40;;;7.90;99.90;;;;;;4994828;28;20022;-82
2023/04/26 04:45:13;;;;;;;9.00;4.20;;;7.90;99.90;;;;;;4994616;28;20042;-82
2023/04/26 04:47:39;;;;;;;7.85;4.05;;;7.90;99.90;;;;;;4995034;28;20536;-82
2023/04/26 04:50:05;;;;;;;8.35;4.47;;;7.90;99.90;;;;;;4994595;28;20030;-82
2023/04/26 04:52:32;;;;;;;8.68;4.25;;;7.90;99.90;;;;;;4995327;28;20502;-82
2023/04/26 04:54:58;;;;;;;6.00;4.05;;;8.00;99.90;;;;;;4995471;28;20049;-81
2023/04/26 04:57:23;;;;;;;7.13;4.30;;;8.00;99.90;;;;;;5010652;28;20033;-81
2023/04/26 04:59:49;;;;;;;6.78;4.32;;;7.90;99.90;;;;;;5011897;28;20378;-81
2023/04/26 05:02:14;;;;;;;7.40;4.47;;;7.90;99.90;;;;;;5014502;28;20534;-80
2023/04/26 05:04:40;;;;;;;11.77;4.40;;;8.00;99.90;;;;;;5013267;28;20122;-81
2023/04/26 05:07:05;;;;;;;11.25;4.72;;;8.00;99.90;;;;;;5014851;28;20022;-81
2023/04/26 05:09:31;;;;;;;7.55;4.43;;;8.10;99.90;;;;;;5014755;28;20048;-81
2023/04/26 05:11:56;;;;;;;12.40;4.32;;;8.10;99.90;;;;;;5013451;28;20033;-81
2023/04/26 05:14:22;;;;;;;6.80;3.92;;;8.30;99.90;;;;;;5014011;28;20033;-81
2023/04/26 05:16:48;;;;;;;11.32;4.32;;;8.30;99.90;;;;;;5013906;28;20022;-81
2023/04/26 05:19:14;;;;;;;14.35;4.50;;;8.30;99.90;;;;;;5013191;28;20421;-81
2023/04/26 05:21:39;;;;;;;7.07;4.63;;;8.30;99.90;;;;;;5014976;28;20033;-81
2023/04/26 05:24:05;;;;;;;8.38;4.43;;;8.30;99.90;;;;;;5014259;28;20061;-81
2023/04/26 05:26:30;;;;;;;10.18;4.93;;;8.30;99.90;;;;;;5012861;28;20022;-81
2023/04/26 05:28:56;;;;;;;9.98;5.13;;;8.30;99.90;;;;;;5014012;28;20164;-80
2023/04/26 05:31:22;;;;;;;10.77;4.90;;;8.30;99.90;;;;;;5014082;28;20495;-80
2023/04/26 05:33:47;;;;;;;11.55;5.28;;;8.30;99.90;;;;;;5012903;28;20025;-81
2023/04/26 05:36:13;;;;;;;9.80;4.72;;;8.30;99.90;;;;;;5013287;28;20103;-81
2023/04/26 05:38:38;;;;;;;13.50;5.10;;;8.40;99.90;;;;;;5027237;28;20041;-81
2023/04/26 05:41:04;;;;;;;14.40;4.40;;;8.40;99.90;;;;;;5033274;28;20104;-81
2023/04/26 05:43:29;;;;;;;7.20;4.55;;;8.40;99.90;;;;;;5019340;28;20048;-81
2023/04/26 05:45:56;;;;;;;10.48;5.13;;;8.50;99.90;;;;;;5014121;28;20385;-82
2023/04/26 05:48:22;;;;;;;13.57;5.00;;;8.60;99.90;;;;;;5012599;28;20041;-81
2023/04/26 05:50:49;;;;;;;9.70;5.30;;;8.60;99.90;;;;;;5013028;28;20018;-81
2023/04/26 05:53:15;;;;;;;12.40;4.72;;;8.70;99.90;;;;;;5012580;28;20044;-81
2023/04/26 05:55:42;;;;;;;11.20;4.45;;;8.70;99.90;;;;;;5013516;28;20046;-82
2023/04/26 05:58:08;;;;;;;7.13;4.55;;;8.70;99.90;;;;;;5013104;28;20045;-81
2023/04/26 06:00:34;;;;;;;9.73;4.60;;;8.70;99.90;;;;;;5012939;28;20026;-82
2023/04/26 06:03:00;;;;;;;8.25;4.38;;;8.70;99.90;;;;;;5012210;28;20610;-81
2023/04/26 06:05:25;;;;;;;9.68;4.43;;;8.70;99.90;;;;;;5013378;28;20037;-81
2023/04/26 06:07:52;;;;;;;15.55;4.47;;;8.80;99.90;;;;;;5012848;28;20025;-81
2023/04/26 06:10:18;;;;;;;8.90;4.32;;;8.80;99.90;;;;;;5012339;28;20512;-82
2023/04/26 06:12:44;;;;;;;9.75;4.65;;;8.70;99.90;;;;;;5012852;28;20034;-82
2023/04/26 06:15:10;;;;;;;6.93;4.40;;;8.70;99.90;;;;;;5012676;28;20030;-81
2023/04/26 06:17:35;;;;;;;10.55;4.80;;;8.70;99.90;;;;;;5012952;28;20038;-82
2023/04/26 06:20:01;;;;;;;10.88;4.47;;;8.60;99.90;;;;;;5012909;28;20367;-81
2023/04/26 06:22:27;;;;;;;11.10;5.18;;;8.60;99.90;;;;;;5012357;28;20092;-82
2023/04/26 06:24:52;;;;;;;10.95;4.60;;;8.50;99.90;;;;;;5012993;28;20025;-81
2023/04/26 06:27:18;;;;;;;11.02;4.78;;;8.50;99.90;;;;;;5012756;28;20496;-81
2023/04/26 06:29:44;;;;;;;11.45;5.47;;;8.60;99.90;;;;;;5012060;28;20045;-82
2023/04/26 06:32:09;;;;;;;20.33;5.65;;;8.50;99.90;;;;;;5001607;28;20042;-82
2023/04/26 06:34:36;;;;;;;16.80;4.88;;;8.50;99.90;;;;;;4992859;28;20033;-82
2023/04/26 06:37:03;;;;;;;12.65;5.22;;;8.50;99.90;;;;;;4992296;28;20030;-82
2023/04/26 06:39:29;;;;;;;11.80;4.43;;;8.50;99.90;;;;;;4992917;28;20069;-83
2023/04/26 06:41:55;;;;;;;10.32;4.13;;;8.50;99.90;;;;;;4992771;28;20050;-82
2023/04/26 06:44:21;;;;;;;9.27;3.60;;;8.50;99.90;;;;;;4992150;28;20398;-81
2023/04/26 06:46:46;;;;;;;12.65;5.15;;;8.80;99.90;;;;;;4993299;28;20474;-81
2023/04/26 06:49:12;;;;;;;7.40;4.35;;;8.50;99.90;;;;;;4992942;28;20022;-82
2023/04/26 06:51:37;;;;;;;15.43;4.53;;;8.50;99.90;;;;;;4992583;28;20320;-82
2023/04/26 06:54:03;;;;;;;8.93;4.00;;;8.50;99.90;;;;;;4996359;28;20105;-82
2023/04/26 06:56:29;;;;;;;10.65;4.50;;;8.50;99.90;;;;;;5001661;28;20583;-83
2023/04/26 06:58:59;;;;;;;10.15;3.85;;;8.50;99.90;;;;;;5003771;28;20031;-82
2023/04/26 07:01:27;;;;;;;6.15;3.53;;;8.50;99.90;;;;;;5000563;28;20028;-81
2023/04/26 07:04:17;;;;;;;8.85;3.65;;;8.60;99.90;;;;;;4999589;28;20034;-81
2023/04/26 07:06:43;;;;;;;5.97;2.95;;;8.60;99.90;;;;;;5003450;28;20018;-81
2023/04/26 07:09:09;;;;;;;7.65;3.17;;;8.80;99.90;;;;;;4999440;28;20052;-82
2023/04/26 07:11:44;;;;;;;;;;;;;;;;;;;;;
2023/04/26 07:14:13;;;;;;;9.50;3.42;;;8.90;99.90;;;;;;4998459;28;20030;-82
2023/04/26 07:16:38;;;;;;;7.88;2.90;;;9.20;99.90;;;;;;5001461;28;20058;-81
2023/04/26 07:19:05;;;;;;;8.20;2.83;;;8.90;99.90;;;;;;5000148;28;20060;-82
2023/04/26 07:21:31;;;;;;;6.60;1.80;;;8.80;99.90;;;;;;4999492;28;20022;-82
2023/04/26 07:23:56;;;;;;;8.73;1.85;;;8.80;99.90;;;;;;5002422;28;20033;-82
2023/04/26 07:26:23;;;;;;;6.45;1.50;;;8.70;99.90;;;;;;5010640;28;20022;-82
2023/04/26 07:28:52;;;;;;;6.00;2.05;;;8.80;99.90;;;;;;5012617;28;20046;-82
2023/04/26 07:31:19;;;;;;;4.65;2.03;;;8.80;99.90;;;;;;5005428;28;20034;-82
2023/04/26 07:33:45;;;;;;;7.63;2.90;;;8.80;99.90;;;;;;4999503;28;20015;-85
2023/04/26 07:36:10;;;;;;;10.38;2.20;;;8.80;99.90;;;;;;4992276;28;20030;-83
2023/04/26 07:38:36;;;;;;;3.40;1.75;;;8.80;99.90;;;;;;4991721;28;20512;-82
2023/04/26 07:41:02;;;;;;;4.45;1.70;;;8.80;99.90;;;;;;4992589;28;20093;-84
2023/04/26 07:43:29;;;;;;;5.40;1.80;;;8.70;99.90;;;;;;4992067;28;20501;-83
2023/04/26 07:45:57;;;;;;;12.82;2.05;;;8.80;99.90;;;;;;4996844;28;20470;-82
2023/04/26 07:48:23;;;;;;;5.07;1.70;;;8.80;99.90;;;;;;4991968;28;20034;-83
2023/04/26 07:50:49;;;;;;;6.82;2.22;;;8.90;99.90;;;;;;4992094;28;20034;-82
2023/04/26 07:53:14;;;;;;;3.75;1.73;;;8.90;99.90;;;;;;4990959;28;20026;-81
2023/04/26 07:55:40;;;;;;;4.72;1.33;;;8.90;99.90;;;;;;4991821;28;20046;-80
2023/04/26 07:58:06;;;;;;;3.60;1.00;;;8.90;99.90;;;;;;4993213;28;20053;-80
2023/04/26 08:00:32;;;;;;;4.95;1.20;;;8.90;99.90;;;;;;4995691;28;20382;-80
2023/04/26 08:02:58;;;;;;;6.22;1.75;;;9.00;99.90;;;;;;4995890;28;20037;-81
2023/04/26 08:05:23;;;;;;;7.95;1.63;;;9.00;99.90;;;;;;4995305;28;20018;-82
2023/04/26 08:07:49;;;;;;;4.00;1.50;;;9.00;99.90;;;;;;4995094;28;20034;-80
2023/04/26 08:10:14;;;;;;;5.55;2.38;;;9.00;99.90;;;;;;4995738;28;20026;-81
2023/04/26 08:12:43;;;;;;;4.18;1.52;;;9.10;99.90;;;;;;4994790;28;20097;-81
2023/04/26 08:15:10;;;;;;;7.05;1.80;;;9.50;99.90;;;;;;4995075;28;20026;-82
2023/04/26 08:17:36;;;;;;;5.25;1.50;;;9.10;99.90;;;;;;4995336;28;20121;-81
2023/04/26 08:20:04;;;;;;;6.00;1.30;;;9.20;99.90;;;;;;4995411;28;20502;-82
2023/04/26 08:22:30;;;;;;;3.38;1.73;;;9.20;99.90;;;;;;5005198;28;20030;-80
2023/04/26 08:24:55;;;;;;;8.35;2.42;;;9.20;99.90;;;;;;5015615;28;20026;-81
2023/04/26 08:27:22;;;;;;;4.22;1.98;;;9.20;99.90;;;;;;5013850;28;20022;-81
2023/04/26 08:29:47;;;;;;;11.05;3.55;;;9.20;99.90;;;;;;5014500;28;20026;-81
2023/04/26 08:32:13;;;;;;;6.35;2.53;;;9.20;99.90;;;;;;5014802;28;20532;-81
2023/04/26 08:34:39;;;;;;;7.47;2.17;;;9.20;99.90;;;;;;5014976;28;20022;-81
2023/04/26 08:37:06;;;;;;;5.15;2.92;;;9.10;99.90;;;;;;5013804;28;20014;-81
2023/04/26 08:39:34;;;;;;;11.10;2.58;;;9.20;99.90;;;;;;5012116;28;20551;-81
2023/04/26 08:42:13;;;;;;;7.85;2.72;;;9.20;99.90;;;;;;5010732;28;20024;-81
2023/04/26 08:44:41;;;;;;;8.55;2.83;;;9.10;99.90;;;;;;5012462;28;20478;-80
2023/04/26 08:47:38;;;;;;;7.00;3.00;;;9.10;99.90;;;;;;5012627;28;20026;-81
2023/04/26 08:50:05;;;;;;;4.97;2.78;;;9.10;99.90;;;;;;4997001;28;20030;-81
2023/04/26 08:52:31;;;;;;;6.63;2.63;;;9.10;99.90;;;;;;5004857;28;20030;-81
2023/04/26 08:54:58;;;;;;;10.85;3.30;;;9.10;99.90;;;;;;5003548;28;20046;-81
2023/04/26 08:57:24;;;;;;;4.43;2.67;;;9.10;99.90;;;;;;5004242;28;20033;-81
2023/04/26 08:59:52;;;;;;;7.80;2.67;;;9.00;99.90;;;;;;5007954;28;20044;-82
2023/04/26 09:02:19;;;;;;;6.00;2.33;;;9.10;99.90;;;;;;5001789;28;20037;-82
2023/04/26 09:04:48;;;;;;;3.67;2.08;;;9.10;99.90;;;;;;4997178;28;20419;-81
2023/04/26 09:07:39;;;;;;;6.68;1.80;;;9.10;99.90;;;;;;5005126;28;20026;-81
2023/04/26 09:10:05;;;;;;;6.05;2.20;;;9.10;99.90;;;;;;5010796;28;20026;-81
2023/04/26 09:12:31;;;;;;;6.97;2.15;;;9.10;99.90;;;;;;5000337;28;20181;-81
2023/04/26 09:14:57;;;;;;;3.97;1.65;;;9.10;99.90;;;;;;5001627;28;20429;-82
2023/04/26 09:17:32;;;;;;;5.93;2.08;;;9.10;99.90;;;;;;5005914;28;20036;-82
2023/04/26 09:19:59;;;;;;;7.13;1.90;;;9.10;99.90;;;;;;5009961;28;20359;-82
2023/04/26 09:22:32;;;;;;;12.23;2.00;;;9.10;99.90;;;;;;4995195;28;20165;-83
2023/04/26 09:24:58;;;;;;;5.72;1.85;;;9.10;99.90;;;;;;4997968;28;20030;-82
2023/04/26 09:27:38;;;;;;;1.85;1.40;;;9.10;99.90;;;;;;4994673;28;20097;-81
2023/04/26 09:30:16;;;;;;;5.28;1.90;;;9.20;99.90;;;;;;4994638;28;20018;-83
2023/04/26 09:33:09;;;;;;;5.75;1.80;;;9.20;99.90;;;;;;4993649;28;20042;-83
2023/04/26 09:35:36;;;;;;;1.75;1.25;;;9.20;99.90;;;;;;4994649;28;20026;-83
2023/04/26 09:38:16;;;;;;;3.03;1.67;;;9.20;99.90;;;;;;4994396;28;20117;-81
2023/04/26 09:40:47;;;;;;;7.18;1.55;;;9.20;99.90;;;;;;4994626;28;20030;-81
2023/04/26 09:43:14;;;;;;;;;;;9.20;99.90;;;;;;4998549;28;20101;-82
2023/04/26 09:45:52;;;;;;;4.97;1.77;;;9.20;99.90;;;;;;5007339;28;20386;-82
2023/04/26 09:48:29;;;;;;;4.47;1.70;;;9.20;99.90;;;;;;5003519;28;20037;-81
2023/04/26 09:51:16;;;;;;;3.22;1.50;;;9.30;99.90;;;;;;5003304;28;20026;-81
2023/04/26 09:53:46;;;;;;;5.18;1.63;;;9.20;99.90;;;;;;5003203;28;20093;-82
2023/04/26 09:56:13;;;;;;;3.38;1.45;;;9.20;99.90;;;;;;5001762;28;20056;-82
2023/04/26 09:58:57;;;;;;;7.30;2.20;;;9.30;99.90;;;;;;5002586;28;20124;-83
2023/04/26 10:01:24;;;;;;;3.80;1.52;;;9.20;99.90;;;;;;5002231;28;20018;-81
2023/04/26 10:03:50;;;;;;;5.50;1.98;;;9.20;99.90;;;;;;5001807;28;20040;-81
2023/04/26 10:06:16;;;;;;;1.80;1.20;;;9.20;99.90;;;;;;5003074;28;20169;-82
2023/04/26 10:08:42;;;;;;;5.13;1.48;;;9.20;99.90;;;;;;5002468;28;20031;-82
2023/04/26 10:11:11;;;;;;;7.63;1.33;;;9.30;99.90;;;;;;5003264;28;20072;-81
2023/04/26 10:13:38;;;;;;;7.93;2.05;;;9.20;99.90;;;;;;5003719;28;20198;-82
2023/04/26 10:16:05;;;;;;;4.95;1.20;;;9.20;99.90;;;;;;5002125;28;20018;-83
2023/04/26 10:18:31;;;;;;;6.70;2.15;;;9.30;99.90;;;;;;5002616;28;20029;-81
2023/04/26 10:21:06;;;;;;;3.05;1.38;;;9.30;99.90;;;;;;5003045;28;20439;-83
2023/04/26 10:23:32;;;;;;;5.88;1.48;;;9.40;99.90;;;;;;5003203;28;20496;-82
2023/04/26 10:25:57;;;;;;;8.65;1.58;;;9.40;99.90;;;;;;5004123;28;20034;-83
2023/04/26 10:28:48;;;;;;;8.55;1.65;;;9.40;99.90;;;;;;5001504;28;20032;-86
2023/04/26 10:31:13;;;;;;;2.95;1.65;;;9.50;99.90;;;;;;5000520;28;20036;-83
2023/04/26 10:33:39;;;;;;;3.35;1.20;;;9.50;99.90;;;;;;5003608;28;20113;-82
2023/04/26 10:36:07;;;;;;;3.65;1.38;;;9.50;99.90;;;;;;5001955;28;20019;-83
2023/04/26 10:38:33;;;;;;;8.05;2.05;;;9.50;99.90;;;;;;5001404;28;20489;-82
2023/04/26 10:41:34;;;;;;;5.82;1.50;;;9.50;99.90;;;;;;5001362;28;20026;-83
2023/04/26 10:44:32;;;;;;;3.15;1.52;;;9.50;99.90;;;;;;5002917;28;20026;-82
2023/04/26 10:46:57;;;;;;;4.85;2.00;;;9.50;99.90;;;;;;5003592;28;20029;-83
2023/04/26 10:49:23;;;;;;;4.97;1.48;;;9.50;99.90;;;;;;5000518;28;20018;-81
2023/04/26 10:52:11;;;;;;;9.38;2.10;;;9.50;99.90;;;;;;5000757;28;20034;-81
2023/04/26 10:54:52;;;;;;;5.30;1.50;;;9.50;99.90;;;;;;5003467;28;20109;-81
2023/04/26 10:57:18;;;;;;;10.82;2.88;;;9.40;99.90;;;;;;5002565;28;20033;-81
2023/04/26 11:00:22;;;;;;;5.43;1.20;;;9.40;99.90;;;;;;5002836;28;20030;-81
2023/04/26 11:02:49;;;;;;;3.42;1.10;;;9.40;99.90;;;;;;4996281;28;20446;-81
2023/04/26 11:05:34;;;;;;;5.28;1.50;;;9.40;99.90;;;;;;4995435;28;20105;-81
2023/04/26 11:08:08;;;;;;;3.45;1.02;;;9.50;99.90;;;;;;5001153;28;20113;-84
2023/04/26 11:10:36;;;;;;;4.80;1.63;;;9.40;99.90;;;;;;5004434;28;20061;-82
2023/04/26 11:13:03;;;;;;;3.40;1.15;;;9.40;99.90;;;;;;5000797;28;20014;-83
2023/04/26 11:15:30;;;;;;;3.47;1.80;;;9.40;99.90;;;;;;5005210;28;20030;-82
2023/04/26 11:17:56;;;;;;;3.75;1.90;;;9.40;99.90;;;;;;5002161;28;20041;-83
2023/04/26 11:20:22;;;;;;;7.63;1.70;;;9.40;99.90;;;;;;5000876;28;20030;-83
2023/04/26 11:22:47;;;;;;;2.20;1.42;;;9.30;99.90;;;;;;5002481;28;20033;-83
2023/04/26 11:25:13;;;;;;;8.20;1.50;;;9.40;99.90;;;;;;5001803;28;20081;-83
2023/04/26 11:27:42;;;;;;;5.80;1.85;;;9.50;99.90;;;;;;5000308;28;20023;-82
2023/04/26 11:30:08;;;;;;;4.95;1.55;;;9.50;99.90;;;;;;5004712;28;20111;-83
2023/04/26 11:32:34;;;;;;;6.43;1.25;;;9.50;99.90;;;;;;4999990;28;20057;-83
2023/04/26 11:35:00;;;;;;;2.75;1.35;;;9.50;99.90;;;;;;5003495;28;20094;-83
2023/04/26 11:37:26;;;;;;;12.13;1.75;;;9.50;99.90;;;;;;5001685;28;20026;-83
2023/04/26 11:39:51;;;;;;;5.38;1.20;;;9.50;99.90;;;;;;5001437;28;20030;-82
2023/04/26 11:42:23;;;;;;;2.85;1.05;;;9.50;99.90;;;;;;5002192;28;20382;-83
2023/04/26 11:44:50;;;;;;;3.88;1.10;;;9.60;99.90;;;;;;5000721;28;20481;-83
2023/04/26 11:47:17;;;;;;;2.13;1.35;;;9.50;99.90;;;;;;5005597;28;20455;-82
2023/04/26 11:49:43;;;;;;;6.25;1.23;;;9.60;99.90;;;;;;5000137;28;20422;-83
2023/04/26 11:52:09;;;;;;;2.83;1.40;;;9.50;99.90;;;;;;4995434;28;20011;-83
2023/04/26 11:54:36;;;;;;;5.68;1.88;;;10.30;99.90;;;;;;5001066;28;20084;-83
2023/04/26 11:57:15;;;;;;;3.67;1.45;;;9.50;99.90;;;;;;4999056;28;20105;-82
2023/04/26 11:59:41;;;;;;;3.33;1.35;;;9.70;99.90;;;;;;5002102;28;20034;-82
2023/04/26 12:02:08;;;;;;;1.25;1.00;;;9.70;99.90;;;;;;5000114;28;20025;-83
2023/04/26 12:04:34;;;;;;;7.00;1.40;;;9.70;99.90;;;;;;5000614;28;20037;-84
2023/04/26 12:07:03;;;;;;;3.65;1.52;;;9.70;99.90;;;;;;4998479;28;20435;-82
2023/04/26 12:09:30;;;;;;;2.60;1.23;;;9.70;99.90;;;;;;5005135;28;20017;-82
2023/04/26 12:12:00;;;;;;;3.97;1.45;;;9.80;99.90;;;;;;4999634;28;20126;-82
2023/04/26 12:14:30;;;;;;;8.32;2.08;;;9.80;99.90;;;;;;4997785;28;20014;-83
2023/04/26 12:17:01;;;;;;;4.60;1.90;;;9.90;99.90;;;;;;5001393;28;20038;-82
2023/04/26 12:19:28;;;;;;;6.03;1.30;;;9.90;99.90;;;;;;5002473;28;20033;-82
2023/04/26 12:21:54;;;;;;;4.55;1.00;;;9.90;99.50;;;;;;4997019;28;20030;-82
2023/04/26 12:24:29;;;;;;;8.98;1.20;;;10.00;99.40;;;;;;4997723;28;20086;-82
2023/04/26 12:26:55;;;;;;;3.50;1.20;;;10.00;98.80;;;;;;5050565;23;20041;-82
2023/04/26 12:29:20;;;;;;;3.17;1.20;;;10.00;99.40;;;;;;4998081;28;20034;-83
2023/04/26 12:31:46;;;;;;;3.85;2.33;;;10.10;99.10;;;;;;4997033;28;20435;-85
2023/04/26 12:34:12;;;;;;;4.70;2.00;;;10.10;99.30;;;;;;4995618;28;20386;-84
2023/04/26 12:36:43;;;;;;;8.05;1.77;;;10.00;99.10;;;;;;5004208;28;20034;-82
2023/04/26 12:39:10;;;;;;;3.00;1.30;;;10.60;99.30;;;;;;5007382;28;20030;-82
2023/04/26 12:41:35;;;;;;;7.53;1.70;;;10.10;99.60;;;;;;5007365;28;20497;-82
2023/04/26 12:44:01;;;;;;;2.47;1.23;;;10.10;99.30;;;;;;5005814;28;20022;-82
2023/04/26 12:46:26;;;;;;;6.57;1.73;;;10.10;99.40;;;;;;5008619;28;20046;-82
2023/04/26 12:48:53;;;;;;;6.32;1.65;;;10.00;99.80;;;;;;5009797;28;20105;-83
2023/04/26 12:51:18;;;;;;;5.53;2.28;;;10.00;99.90;;;;;;5011057;28;20033;-83
2023/04/26 12:53:44;;;;;;;10.30;1.88;;;10.00;99.90;;;;;;5010916;28;20018;-85
2023/04/26 12:56:09;;;;;;;10.68;2.67;;;9.90;99.90;;;;;;5007579;28;20045;-83